メインページ
METAR-TAF:

METAR-TAF

空港 :

Fort Nelson, ブリティッシュコロンビア州, カナダ

緯度: 58-50N, 経度: 122-35W, 海抜: 382m

現時点の気象観測

当レポートは54分前の05:00(UTC)に作成
南東の風 3kt、からの間で変化する
気温 -8°C
湿度 85%
気圧 1000 hPa
視程: 6.4km
高度600ftの曇り

METAR: CYYE 210500Z 13003KT 100V180 4SM BR OVC006 M08/M10 A2953 RMK ST8 SLP032

時間: 21:54 (05:54 UTC)

予報

当レポートは5時間16分前の00:38(UTC)に作成
予報は21日の 01時(UTC)から 21日の 13時(UTC)まで有効
変向風 3kt
視程: 3.2km
高度400ftの曇り
21日の 01時(UTC)から 21日の 09時(UTC)まで一時的に
視程: 6.4km
高度700ftの曇り
21日の 0900時(UTC)から
変向風 3kt
視程: 10km
高度900ftの雲は散在している
高度1200ftの千切れ雲あり
21日の 09時(UTC)から 21日の 13時(UTC)まで一時的に
高度2000ftの雲は散在している
高度15000ftの千切れ雲あり

TAF: CYYE 210038Z 2101/2113 VRB03KT 2SM BR OVC004 TEMPO 2101/2109 4SM BR OVC007 FM210900 VRB03KT P6SM SCT009 BKN012 TEMPO 2109/2113 SCT020 BKN150 RMK NXT FCST BY 210700Z

4,000以上の空港の気象観測と天気予報(METAR報とTAF報)

利用可能な観測所は地図上に黄色い丸と赤い丸で示す。

丸の上にカーソルを重ねると観測所名を参照できる。

次にクリックすると気象観測と天気予報を参照できる。

マップの切り替え:黒色「×」印の緑ボタンをクリックして拡大、「-」印の緑ボタンをクリックして縮小、緑色の三角印をクリックして隣りの地図に切り替え


METAR-TAF: